0NK3 weather

Seven Gullies Airport
Groveland, New York, United States

Public forecast

Using degrees Fahrenheit for public forecast. Weather courtesy of forecast.io.

Closest aviation weather report (METAR) to Seven Gullies Airport

Closest report is Dansville Municipal Airport, 8.3 nm (15.3 km) SSE. Retrieved 2019/10/23 18:54 UTC (30 minutes ago):

KDSV 231854Z AUTO 20012G19KT 180V260 10SM BKN065 14/M01 A2997 RMK AO2 SLP160 T01441006

Closest aviation forecast (TAF) to Seven Gullies Airport

Closest forecast is Greater Rochester International Airport, 25.9 nm (48.0 km) NNE. Retrieved 2019/10/23 18:34 UTC (50 minutes ago):

TAF KROC 231730Z 2318/2418 25019G31KT P6SM SCT035 FM232300 23012KT P6SM FEW250 FM240600 20010KT P6SM FEW250 WS020/25035KT FM241400 23014G22KT P6SM BKN070 FM241700 25014G26KT P6SM SCT070